createdAt,value
2023-03-25T00:02:24.418Z,9.90
2023-03-25T00:04:52.751Z,10.00
2023-03-25T00:07:21.354Z,10.00
2023-03-25T00:09:48.682Z,10.00
2023-03-25T00:12:18.970Z,10.00
2023-03-25T00:14:54.804Z,10.10
2023-03-25T00:17:23.441Z,10.10
2023-03-25T00:19:53.087Z,10.10
2023-03-25T00:22:19.844Z,10.20
2023-03-25T00:24:46.789Z,10.20
2023-03-25T00:27:14.463Z,10.30
2023-03-25T00:29:44.829Z,10.30
2023-03-25T00:32:12.413Z,10.30
2023-03-25T00:34:41.909Z,10.30
2023-03-25T00:37:09.535Z,10.30
2023-03-25T00:39:38.092Z,10.40
2023-03-25T00:42:05.206Z,10.40
2023-03-25T00:44:32.549Z,10.40
2023-03-25T00:46:59.359Z,10.40
2023-03-25T00:49:28.751Z,10.40
2023-03-25T00:51:58.529Z,10.40
2023-03-25T00:54:25.303Z,10.40
2023-03-25T00:56:53.386Z,10.40
2023-03-25T00:59:20.718Z,10.40
2023-03-25T01:01:47.448Z,10.30
2023-03-25T01:04:14.205Z,10.30
2023-03-25T01:06:44.421Z,10.40
2023-03-25T01:09:13.913Z,10.30
2023-03-25T01:11:42.907Z,10.30
2023-03-25T01:14:15.021Z,10.30
2023-03-25T01:16:42.084Z,10.30
2023-03-25T01:19:09.770Z,10.30
2023-03-25T01:21:36.869Z,10.30
2023-03-25T01:24:05.245Z,10.30
2023-03-25T01:26:32.043Z,10.30
2023-03-25T01:28:58.905Z,10.30
2023-03-25T01:31:30.591Z,10.20
2023-03-25T01:33:58.387Z,10.20
2023-03-25T01:36:29.329Z,10.10
2023-03-25T01:38:59.133Z,10.20
2023-03-25T01:41:33.228Z,10.10
2023-03-25T01:44:30.933Z,10.10
2023-03-25T01:47:01.818Z,10.20
2023-03-25T01:49:38.873Z,10.10
2023-03-25T01:52:25.232Z,10.10
2023-03-25T01:54:54.578Z,10.10
2023-03-25T01:57:23.189Z,10.20
2023-03-25T01:59:51.910Z,10.10
2023-03-25T02:02:20.034Z,10.10
2023-03-25T02:05:02.476Z,10.10
2023-03-25T02:07:33.528Z,10.10
2023-03-25T02:10:08.168Z,10.10
2023-03-25T02:12:34.947Z,10.10
2023-03-25T02:15:05.896Z,10.00
2023-03-25T02:18:02.149Z,10.00
2023-03-25T02:21:25.784Z,10.00
2023-03-25T02:24:35.221Z,10.00
2023-03-25T02:27:15.438Z,10.00
2023-03-25T02:29:54.095Z,10.00
2023-03-25T02:32:39.178Z,10.00
2023-03-25T02:35:16.456Z,10.00
2023-03-25T02:38:06.451Z,10.00
2023-03-25T02:40:58.875Z,10.00
2023-03-25T02:43:40.173Z,10.00
2023-03-25T02:46:12.015Z,10.00
2023-03-25T02:48:53.811Z,10.00
2023-03-25T02:51:46.312Z,10.00
2023-03-25T02:54:15.793Z,10.00
2023-03-25T02:56:46.083Z,10.00
2023-03-25T02:59:14.274Z,10.00
2023-03-25T03:01:41.414Z,9.90
2023-03-25T03:04:08.560Z,9.80
2023-03-25T03:06:40.033Z,9.70
2023-03-25T03:09:25.532Z,9.50
2023-03-25T03:12:00.194Z,9.40
2023-03-25T03:14:45.849Z,9.30
2023-03-25T03:17:34.236Z,9.30
2023-03-25T03:20:15.852Z,9.30
2023-03-25T03:22:52.698Z,9.20
2023-03-25T03:25:28.067Z,9.20
2023-03-25T03:28:25.804Z,9.30
2023-03-25T03:30:58.852Z,9.20
2023-03-25T03:33:34.563Z,9.30
2023-03-25T03:36:09.444Z,9.30
2023-03-25T03:38:40.956Z,9.30
2023-03-25T03:41:11.956Z,9.40
2023-03-25T03:43:38.654Z,9.40
2023-03-25T03:46:11.377Z,9.40
2023-03-25T03:48:49.268Z,9.50
2023-03-25T03:51:25.060Z,9.60
2023-03-25T03:54:14.463Z,9.60
2023-03-25T03:57:27.795Z,9.60
2023-03-25T04:00:08.211Z,9.70
2023-03-25T04:02:42.651Z,9.70
2023-03-25T04:05:12.194Z,9.70
2023-03-25T04:07:44.172Z,9.60
2023-03-25T04:10:52.731Z,9.60
2023-03-25T04:13:21.982Z,9.60
2023-03-25T04:15:49.414Z,9.60
2023-03-25T04:18:17.654Z,9.60
2023-03-25T04:20:45.035Z,9.60
2023-03-25T04:23:18.391Z,9.60
2023-03-25T04:25:50.059Z,9.60
2023-03-25T04:28:18.069Z,9.70
2023-03-25T04:30:46.229Z,9.60
2023-03-25T04:33:13.375Z,9.60
2023-03-25T04:35:40.596Z,9.60
2023-03-25T04:38:07.893Z,9.60
2023-03-25T04:40:34.674Z,9.50
2023-03-25T04:43:01.429Z,9.50
2023-03-25T04:45:28.912Z,9.50
2023-03-25T04:47:55.956Z,9.50
2023-03-25T04:50:27.147Z,9.60
2023-03-25T04:52:57.569Z,9.50
2023-03-25T04:55:25.767Z,9.40
2023-03-25T04:57:54.100Z,9.30
2023-03-25T05:00:24.077Z,9.30
2023-03-25T05:02:54.112Z,9.30
2023-03-25T05:05:23.425Z,9.30
2023-03-25T05:07:55.348Z,9.30
2023-03-25T05:10:24.752Z,9.30
2023-03-25T05:12:59.027Z,9.30
2023-03-25T05:15:26.460Z,9.20
2023-03-25T05:17:53.203Z,9.20
2023-03-25T05:20:20.001Z,9.20
2023-03-25T05:22:46.697Z,9.10
2023-03-25T05:25:13.444Z,9.20
2023-03-25T05:27:40.268Z,9.20
2023-03-25T05:30:08.311Z,9.20
2023-03-25T05:32:35.063Z,9.30
2023-03-25T05:35:03.231Z,9.20
2023-03-25T05:37:30.335Z,9.30
2023-03-25T05:39:57.047Z,9.20
2023-03-25T05:42:23.966Z,9.20
2023-03-25T05:44:52.008Z,9.20
2023-03-25T05:47:21.971Z,9.30
2023-03-25T05:49:49.940Z,9.20
2023-03-25T05:52:18.072Z,9.20
2023-03-25T05:54:46.194Z,9.30
2023-03-25T05:57:13.547Z,9.30
2023-03-25T05:59:40.748Z,9.30
2023-03-25T06:02:15.867Z,9.30
2023-03-25T06:04:43.563Z,9.20
2023-03-25T06:07:19.928Z,9.30
2023-03-25T06:09:47.937Z,9.30
2023-03-25T06:12:16.889Z,9.20
2023-03-25T06:14:45.424Z,9.20
2023-03-25T06:17:13.140Z,9.20
2023-03-25T06:19:40.057Z,9.20
2023-03-25T06:22:11.693Z,9.10
2023-03-25T06:24:42.881Z,9.20
2023-03-25T06:27:14.935Z,9.20
2023-03-25T06:29:41.939Z,9.20
2023-03-25T06:32:11.572Z,9.30
2023-03-25T06:34:39.315Z,9.30
2023-03-25T06:37:06.446Z,9.30
2023-03-25T06:39:33.816Z,9.20
2023-03-25T06:42:01.204Z,9.20
2023-03-25T06:44:28.202Z,9.10
2023-03-25T06:46:55.201Z,9.20
2023-03-25T06:49:22.052Z,9.10
2023-03-25T06:51:48.951Z,9.10
2023-03-25T06:54:15.735Z,9.10
2023-03-25T06:56:42.506Z,9.10
2023-03-25T06:59:09.241Z,9.20
2023-03-25T07:01:36.290Z,9.40
2023-03-25T07:04:03.004Z,9.50
2023-03-25T07:06:29.762Z,9.70
2023-03-25T07:08:56.664Z,9.90
2023-03-25T07:11:29.908Z,10.00
2023-03-25T07:13:56.791Z,10.10
2023-03-25T07:16:23.733Z,10.30
2023-03-25T07:18:51.477Z,10.50
2023-03-25T07:21:19.056Z,10.70
2023-03-25T07:23:45.912Z,10.80
2023-03-25T07:26:13.469Z,10.80
2023-03-25T07:28:41.075Z,10.60
2023-03-25T07:31:09.512Z,10.50
2023-03-25T07:33:36.404Z,10.40
2023-03-25T07:36:04.620Z,10.50
2023-03-25T07:38:31.580Z,10.60
2023-03-25T07:40:58.493Z,10.60
2023-03-25T07:43:25.313Z,10.70
2023-03-25T07:45:53.692Z,10.70
2023-03-25T07:48:22.706Z,10.80
2023-03-25T07:50:51.981Z,10.80
2023-03-25T07:53:19.170Z,10.70
2023-03-25T07:55:46.506Z,10.80
2023-03-25T07:58:13.398Z,11.00
2023-03-25T08:00:40.524Z,11.10
2023-03-25T08:03:07.366Z,11.30
2023-03-25T08:05:34.503Z,11.40
2023-03-25T08:08:01.263Z,11.60
2023-03-25T08:10:28.083Z,11.90
2023-03-25T08:12:54.946Z,11.90
2023-03-25T08:15:24.786Z,12.10
2023-03-25T08:17:52.377Z,11.90
2023-03-25T08:20:19.646Z,11.90
2023-03-25T08:22:47.989Z,11.80
2023-03-25T08:25:14.750Z,11.70
2023-03-25T08:27:41.644Z,11.50
2023-03-25T08:30:10.290Z,11.50
2023-03-25T08:32:38.439Z,11.40
2023-03-25T08:35:06.526Z,11.30
2023-03-25T08:37:37.846Z,11.20
2023-03-25T08:40:10.741Z,10.90
2023-03-25T08:42:38.431Z,10.90
2023-03-25T08:45:06.337Z,10.90
2023-03-25T08:47:33.128Z,10.90
2023-03-25T08:49:59.951Z,11.00
2023-03-25T08:52:26.688Z,11.00
2023-03-25T08:54:53.426Z,11.00
2023-03-25T08:57:20.688Z,11.20
2023-03-25T08:59:47.435Z,11.40
2023-03-25T09:02:14.402Z,11.40
2023-03-25T09:04:41.487Z,11.60
2023-03-25T09:07:12.529Z,11.70
2023-03-25T09:09:40.916Z,11.80
2023-03-25T09:12:08.608Z,11.90
2023-03-25T09:14:35.449Z,12.10
2023-03-25T09:17:02.429Z,12.20
2023-03-25T09:19:29.392Z,12.30
2023-03-25T09:21:56.260Z,12.20
2023-03-25T09:24:23.772Z,12.00
2023-03-25T09:26:50.797Z,12.10
2023-03-25T09:29:17.611Z,11.90
2023-03-25T09:31:44.434Z,11.80
2023-03-25T09:34:11.737Z,11.90
2023-03-25T09:36:38.602Z,11.80
2023-03-25T09:39:05.472Z,11.70
2023-03-25T09:41:41.612Z,11.70
2023-03-25T09:44:43.120Z,11.50
2023-03-25T09:47:15.092Z,11.60
2023-03-25T09:49:46.179Z,11.60
2023-03-25T09:52:19.504Z,11.60
2023-03-25T09:54:51.836Z,11.70
2023-03-25T09:57:24.681Z,11.70
2023-03-25T09:59:52.667Z,11.80
2023-03-25T10:02:34.705Z,12.00
2023-03-25T10:05:30.292Z,11.70
2023-03-25T10:08:16.480Z,11.80
2023-03-25T10:11:01.788Z,11.90
2023-03-25T10:13:43.871Z,11.70
2023-03-25T10:16:29.457Z,11.90
2023-03-25T10:19:33.855Z,12.00
2023-03-25T10:22:18.326Z,12.20
2023-03-25T10:24:51.147Z,12.20
2023-03-25T10:27:39.998Z,12.30
2023-03-25T10:30:09.662Z,12.40
2023-03-25T10:32:50.602Z,12.60
2023-03-25T10:35:33.911Z,12.60
2023-03-25T10:38:13.826Z,12.60
2023-03-25T10:40:50.249Z,12.80
2023-03-25T10:43:29.212Z,12.90
2023-03-25T10:46:21.218Z,13.10
2023-03-25T10:48:49.540Z,13.20
2023-03-25T10:51:26.839Z,13.00
2023-03-25T10:53:54.029Z,13.00
2023-03-25T10:56:25.733Z,13.10
2023-03-25T10:58:55.707Z,13.10
2023-03-25T11:01:42.953Z,12.90
2023-03-25T11:04:14.415Z,12.90
2023-03-25T11:06:45.863Z,13.00
2023-03-25T11:09:23.638Z,12.90
2023-03-25T11:11:52.128Z,12.60
2023-03-25T11:14:27.369Z,12.40
2023-03-25T11:17:00.957Z,12.40
2023-03-25T11:19:41.783Z,12.20
2023-03-25T11:22:16.886Z,12.20
2023-03-25T11:24:48.119Z,12.10
2023-03-25T11:27:22.853Z,12.20
2023-03-25T11:30:05.380Z,12.10
2023-03-25T11:32:37.522Z,12.20
2023-03-25T11:35:22.148Z,12.30
2023-03-25T11:37:58.447Z,12.40
2023-03-25T11:40:27.368Z,12.50
2023-03-25T11:42:59.861Z,12.60
2023-03-25T11:45:40.003Z,12.70
2023-03-25T11:48:24.696Z,12.60
2023-03-25T11:50:57.693Z,12.40
2023-03-25T11:53:27.035Z,12.50
2023-03-25T11:55:57.219Z,12.50
2023-03-25T11:58:28.811Z,12.60
2023-03-25T12:01:07.365Z,12.70
2023-03-25T12:03:35.334Z,12.70
2023-03-25T12:06:12.738Z,12.70
2023-03-25T12:08:56.523Z,12.70
2023-03-25T12:11:37.238Z,12.80
2023-03-25T12:14:27.293Z,12.90
2023-03-25T12:17:38.211Z,12.70
2023-03-25T12:20:13.659Z,12.80
2023-03-25T12:22:57.224Z,12.80
2023-03-25T12:25:39.937Z,12.70
2023-03-25T12:28:29.166Z,12.70
2023-03-25T12:31:11.270Z,12.70
2023-03-25T12:33:49.786Z,12.70
2023-03-25T12:36:40.554Z,12.70
2023-03-25T12:39:42.313Z,12.70
2023-03-25T12:42:35.047Z,12.70
2023-03-25T12:45:19.431Z,12.80
2023-03-25T12:48:13.473Z,12.90
2023-03-25T12:51:16.140Z,13.00
2023-03-25T12:53:52.450Z,12.90
2023-03-25T12:56:47.001Z,12.90
2023-03-25T12:59:21.446Z,13.10
2023-03-25T13:02:03.304Z,13.40
2023-03-25T13:04:44.923Z,13.60
2023-03-25T13:07:20.099Z,13.60
2023-03-25T13:10:21.900Z,13.50
2023-03-25T13:12:56.546Z,13.50
2023-03-25T13:15:30.933Z,13.60
2023-03-25T13:18:24.349Z,13.60
2023-03-25T13:21:13.362Z,13.80
2023-03-25T13:23:43.649Z,13.60
2023-03-25T13:26:14.841Z,13.70
2023-03-25T13:28:47.581Z,13.60
2023-03-25T13:31:19.393Z,13.50
2023-03-25T13:33:53.515Z,13.50
2023-03-25T13:36:29.474Z,13.60
2023-03-25T13:39:10.212Z,13.50
2023-03-25T13:41:47.782Z,13.60
2023-03-25T13:44:27.231Z,13.50
2023-03-25T13:47:05.440Z,13.50
2023-03-25T13:49:44.877Z,13.40
2023-03-25T13:52:14.904Z,13.40
2023-03-25T13:54:52.323Z,13.50
2023-03-25T13:57:46.014Z,13.50
2023-03-25T14:00:21.685Z,13.50
2023-03-25T14:02:49.810Z,13.40
2023-03-25T14:05:35.961Z,13.40
2023-03-25T14:08:52.642Z,13.20
2023-03-25T14:11:43.721Z,12.90
2023-03-25T14:14:16.572Z,12.90
2023-03-25T14:17:05.431Z,13.10
2023-03-25T14:19:35.135Z,13.20
2023-03-25T14:22:14.234Z,13.10
2023-03-25T14:24:41.709Z,13.00
2023-03-25T14:27:22.579Z,13.00
2023-03-25T14:29:58.813Z,12.70
2023-03-25T14:32:46.605Z,12.50
2023-03-25T14:35:32.459Z,12.50
2023-03-25T14:38:08.696Z,12.60
2023-03-25T14:40:55.358Z,12.70
2023-03-25T14:43:40.439Z,12.60
2023-03-25T14:46:14.514Z,12.60
2023-03-25T14:48:51.865Z,12.60
2023-03-25T14:51:28.392Z,12.50
2023-03-25T14:54:17.447Z,12.50
2023-03-25T14:56:47.020Z,12.40
2023-03-25T14:59:17.528Z,12.30
2023-03-25T15:01:46.869Z,12.30
2023-03-25T15:04:33.540Z,12.50
2023-03-25T15:07:02.533Z,12.60
2023-03-25T15:09:30.810Z,12.60
2023-03-25T15:12:00.998Z,12.40
2023-03-25T15:14:38.870Z,12.40
2023-03-25T15:17:44.581Z,12.30
2023-03-25T15:20:14.053Z,12.30
2023-03-25T15:22:40.928Z,12.30
2023-03-25T15:25:18.917Z,12.10
2023-03-25T15:28:22.694Z,12.00
2023-03-25T15:30:58.730Z,11.90
2023-03-25T15:33:41.461Z,11.90
2023-03-25T15:36:23.566Z,12.00
2023-03-25T15:38:50.465Z,12.00
2023-03-25T15:41:23.492Z,11.90
2023-03-25T15:44:12.038Z,11.80
2023-03-25T15:47:02.980Z,11.80
2023-03-25T15:49:35.631Z,11.70
2023-03-25T15:52:24.073Z,11.80
2023-03-25T15:54:55.025Z,11.90
2023-03-25T15:57:40.821Z,11.90
2023-03-25T16:00:22.485Z,11.80
2023-03-25T16:03:03.892Z,11.80
2023-03-25T16:05:32.151Z,11.70
2023-03-25T16:08:05.825Z,11.70
2023-03-25T16:10:36.552Z,11.70
2023-03-25T16:13:16.647Z,11.70
2023-03-25T16:15:45.571Z,11.70
2023-03-25T16:18:15.827Z,11.50
2023-03-25T16:20:43.541Z,11.20
2023-03-25T16:23:21.783Z,10.50
2023-03-25T16:25:50.700Z,10.20
2023-03-25T16:28:34.207Z,10.10
2023-03-25T16:31:02.910Z,10.00
2023-03-25T16:33:32.783Z,10.00
2023-03-25T16:36:03.491Z,10.00
2023-03-25T16:38:31.497Z,9.80
2023-03-25T16:41:07.809Z,9.80
2023-03-25T16:43:34.704Z,9.80
2023-03-25T16:46:03.393Z,9.80
2023-03-25T16:48:48.738Z,9.70
2023-03-25T16:51:21.751Z,9.80
2023-03-25T16:53:55.915Z,9.70
2023-03-25T16:56:36.353Z,9.80
2023-03-25T16:59:26.372Z,9.70
2023-03-25T17:01:56.430Z,9.70
2023-03-25T17:04:39.328Z,9.80
2023-03-25T17:07:12.523Z,9.70
2023-03-25T17:09:44.179Z,9.80
2023-03-25T17:12:17.649Z,9.80
2023-03-25T17:14:46.599Z,9.90
2023-03-25T17:17:35.879Z,10.00
2023-03-25T17:20:08.122Z,10.00
2023-03-25T17:22:39.554Z,10.00
2023-03-25T17:25:51.400Z,10.00
2023-03-25T17:28:18.375Z,10.10
2023-03-25T17:30:46.230Z,10.10
2023-03-25T17:33:30.037Z,10.10
2023-03-25T17:35:57.338Z,10.10
2023-03-25T17:38:34.101Z,10.20
2023-03-25T17:41:04.191Z,10.30
2023-03-25T17:43:34.515Z,10.40
2023-03-25T17:46:02.815Z,10.00
2023-03-25T17:48:29.805Z,9.40
2023-03-25T17:50:58.581Z,9.20
2023-03-25T17:53:26.142Z,9.10
2023-03-25T17:55:53.808Z,9.00
2023-03-25T17:58:22.754Z,9.00
2023-03-25T18:00:51.979Z,8.90
2023-03-25T18:03:26.365Z,8.90
2023-03-25T18:05:58.449Z,8.90
2023-03-25T18:08:25.597Z,8.80
2023-03-25T18:10:53.934Z,8.80
2023-03-25T18:13:22.581Z,8.80
2023-03-25T18:15:50.040Z,8.80
2023-03-25T18:18:20.421Z,8.80
2023-03-25T18:20:48.334Z,8.80
2023-03-25T18:23:15.595Z,8.80
2023-03-25T18:25:44.870Z,8.80
2023-03-25T18:28:13.378Z,8.80
2023-03-25T18:30:44.820Z,8.80
2023-03-25T18:33:12.227Z,8.80
2023-03-25T18:35:39.145Z,8.80
2023-03-25T18:38:06.165Z,8.80
2023-03-25T18:40:36.989Z,8.80
2023-03-25T18:43:04.500Z,8.80
2023-03-25T18:45:31.969Z,8.80
2023-03-25T18:47:59.150Z,8.80
2023-03-25T18:50:33.202Z,8.80
2023-03-25T18:53:00.437Z,8.80
2023-03-25T18:55:29.833Z,8.80
2023-03-25T18:57:57.639Z,8.80
2023-03-25T19:00:28.653Z,8.90
2023-03-25T19:02:56.918Z,8.90
2023-03-25T19:05:25.890Z,8.90
2023-03-25T19:07:53.571Z,8.90
2023-03-25T19:10:30.043Z,8.90
2023-03-25T19:12:57.031Z,8.90
2023-03-25T19:15:27.310Z,8.90
2023-03-25T19:17:58.370Z,8.90
2023-03-25T19:20:29.355Z,8.90
2023-03-25T19:22:56.610Z,8.90
2023-03-25T19:25:23.372Z,8.90
2023-03-25T19:27:50.880Z,8.90
2023-03-25T19:30:20.590Z,8.90
2023-03-25T19:32:49.477Z,8.90
2023-03-25T19:35:18.667Z,9.00
2023-03-25T19:37:51.020Z,8.90
2023-03-25T19:40:20.990Z,8.90
2023-03-25T19:42:48.999Z,8.90
2023-03-25T19:45:17.180Z,9.00
2023-03-25T19:47:45.844Z,9.00
2023-03-25T19:50:13.813Z,9.00
2023-03-25T19:52:43.338Z,9.00
2023-03-25T19:55:10.891Z,9.00
2023-03-25T19:57:38.486Z,9.00
2023-03-25T20:00:12.605Z,9.00
2023-03-25T20:02:44.466Z,9.00
2023-03-25T20:05:12.457Z,9.00
2023-03-25T20:07:41.648Z,9.00
2023-03-25T20:10:19.666Z,9.00
2023-03-25T20:12:48.338Z,9.00
2023-03-25T20:15:16.309Z,9.10
2023-03-25T20:17:43.804Z,9.10
2023-03-25T20:20:12.845Z,9.10
2023-03-25T20:22:40.830Z,9.10
2023-03-25T20:25:09.250Z,9.10
2023-03-25T20:27:36.226Z,9.10
2023-03-25T20:30:04.213Z,9.20
2023-03-25T20:32:39.950Z,9.20
2023-03-25T20:35:09.193Z,9.20
2023-03-25T20:37:37.168Z,9.30
2023-03-25T20:40:06.214Z,9.30
2023-03-25T20:42:32.989Z,9.20
2023-03-25T20:44:59.740Z,9.20
2023-03-25T20:47:26.577Z,9.10
2023-03-25T20:49:53.605Z,9.10
2023-03-25T20:52:20.843Z,9.10
2023-03-25T20:54:49.432Z,9.10
2023-03-25T20:57:16.547Z,9.10
2023-03-25T20:59:44.065Z,9.00
2023-03-25T21:02:12.469Z,9.00
2023-03-25T21:04:39.491Z,8.90
2023-03-25T21:07:07.051Z,9.00
2023-03-25T21:09:33.778Z,9.00
2023-03-25T21:12:01.350Z,9.00
2023-03-25T21:14:28.154Z,9.00
2023-03-25T21:16:54.964Z,9.00
2023-03-25T21:19:25.468Z,9.00
2023-03-25T21:21:52.454Z,9.00
2023-03-25T21:24:22.387Z,9.00
2023-03-25T21:26:49.566Z,8.90
2023-03-25T21:29:16.465Z,8.90
2023-03-25T21:31:43.309Z,9.00
2023-03-25T21:34:10.169Z,8.90
2023-03-25T21:36:36.916Z,8.90
2023-03-25T21:39:06.156Z,8.90
2023-03-25T21:41:32.921Z,8.90
2023-03-25T21:43:59.792Z,8.90
2023-03-25T21:46:29.670Z,9.00
2023-03-25T21:48:58.553Z,9.00
2023-03-25T21:51:26.700Z,8.90
2023-03-25T21:53:53.614Z,9.00
2023-03-25T21:56:25.040Z,8.90
2023-03-25T21:58:52.421Z,8.90
2023-03-25T22:01:28.270Z,8.90
2023-03-25T22:03:57.359Z,8.90
2023-03-25T22:06:27.236Z,8.80
2023-03-25T22:08:54.493Z,8.80
2023-03-25T22:11:24.348Z,8.80
2023-03-25T22:13:52.015Z,8.80
2023-03-25T22:16:20.761Z,8.80
2023-03-25T22:18:48.492Z,8.70
2023-03-25T22:21:24.548Z,8.70
2023-03-25T22:23:56.122Z,8.80
2023-03-25T22:26:24.494Z,8.80
2023-03-25T22:28:58.788Z,8.80
2023-03-25T22:31:31.105Z,8.90
2023-03-25T22:34:03.277Z,8.90
2023-03-25T22:36:32.223Z,8.90
2023-03-25T22:39:00.300Z,9.00
2023-03-25T22:41:27.635Z,8.90
2023-03-25T22:43:55.902Z,8.90
2023-03-25T22:46:22.968Z,8.80
2023-03-25T22:48:50.439Z,8.80
2023-03-25T22:51:19.656Z,8.80
2023-03-25T22:53:46.954Z,8.80
2023-03-25T22:56:14.312Z,8.80
2023-03-25T22:58:41.211Z,8.80
2023-03-25T23:01:22.414Z,8.80
2023-03-25T23:03:49.940Z,8.80
2023-03-25T23:06:17.361Z,8.80
2023-03-25T23:08:44.363Z,8.80
2023-03-25T23:11:17.291Z,8.80
2023-03-25T23:13:47.857Z,8.90
2023-03-25T23:16:17.369Z,8.90
2023-03-25T23:18:45.529Z,8.90
2023-03-25T23:21:14.923Z,9.00
2023-03-25T23:23:52.614Z,9.00
2023-03-25T23:26:24.858Z,9.00
2023-03-25T23:28:52.975Z,9.00
2023-03-25T23:31:29.169Z,8.90
2023-03-25T23:33:58.462Z,8.80
2023-03-25T23:36:26.619Z,8.70
2023-03-25T23:38:53.741Z,8.70
2023-03-25T23:41:25.922Z,8.60
2023-03-25T23:43:54.311Z,8.50
2023-03-25T23:46:23.209Z,8.60
2023-03-25T23:48:54.724Z,8.50
2023-03-25T23:51:24.187Z,8.50
2023-03-25T23:53:52.060Z,8.50
2023-03-25T23:56:20.758Z,8.50
2023-03-25T23:58:48.051Z,8.50
